createdAt,value
2023-03-29T00:01:42.094Z,23.11
2023-03-29T00:04:10.168Z,23.10
2023-03-29T00:06:37.876Z,23.08
2023-03-29T00:09:06.035Z,23.07
2023-03-29T00:11:33.090Z,23.09
2023-03-29T00:14:01.336Z,23.07
2023-03-29T00:16:28.209Z,23.06
2023-03-29T00:18:55.419Z,23.04
2023-03-29T00:21:22.295Z,23.03
2023-03-29T00:23:49.098Z,23.04
2023-03-29T00:26:16.006Z,23.00
2023-03-29T00:28:42.804Z,23.02
2023-03-29T00:31:13.486Z,23.00
2023-03-29T00:33:41.484Z,23.05
2023-03-29T00:36:10.535Z,23.05
2023-03-29T00:38:38.145Z,23.01
2023-03-29T00:41:07.876Z,23.00
2023-03-29T00:43:56.622Z,23.00
2023-03-29T00:46:27.237Z,23.01
2023-03-29T00:48:57.907Z,23.03
2023-03-29T00:51:28.083Z,22.99
2023-03-29T00:53:59.052Z,22.97
2023-03-29T00:56:30.193Z,22.98
2023-03-29T00:59:02.264Z,22.98
2023-03-29T01:01:38.100Z,22.98
2023-03-29T01:04:09.863Z,22.97
2023-03-29T01:06:39.272Z,22.99
2023-03-29T01:09:10.355Z,22.98
2023-03-29T01:11:42.102Z,22.99
2023-03-29T01:14:15.347Z,22.99
2023-03-29T01:16:45.995Z,23.00
2023-03-29T01:19:19.082Z,22.99
2023-03-29T01:21:51.618Z,22.99
2023-03-29T01:24:42.044Z,22.95
2023-03-29T01:27:15.872Z,22.94
2023-03-29T01:29:48.958Z,22.94
2023-03-29T01:32:20.149Z,22.93
2023-03-29T01:34:51.840Z,22.96
2023-03-29T01:37:24.940Z,22.97
2023-03-29T01:39:52.779Z,22.95
2023-03-29T01:42:32.519Z,22.95
2023-03-29T01:45:10.203Z,22.96
2023-03-29T01:47:45.519Z,22.96
2023-03-29T01:50:17.740Z,22.95
2023-03-29T01:52:50.568Z,22.93
2023-03-29T01:55:23.069Z,22.92
2023-03-29T01:57:52.216Z,22.92
2023-03-29T02:00:24.869Z,22.93
2023-03-29T02:02:55.047Z,22.93
2023-03-29T02:05:24.537Z,22.93
2023-03-29T02:07:53.013Z,22.92
2023-03-29T02:10:21.685Z,22.93
2023-03-29T02:12:48.738Z,22.93
2023-03-29T02:15:21.527Z,22.93
2023-03-29T02:17:50.918Z,22.94
2023-03-29T02:20:22.545Z,22.92
2023-03-29T02:22:57.580Z,22.89
2023-03-29T02:25:26.047Z,22.91
2023-03-29T02:27:53.659Z,22.90
2023-03-29T02:30:21.409Z,22.88
2023-03-29T02:32:54.425Z,22.91
2023-03-29T02:35:27.862Z,22.88
2023-03-29T02:37:57.394Z,22.88
2023-03-29T02:40:26.145Z,22.89
2023-03-29T02:42:56.018Z,22.91
2023-03-29T02:45:25.637Z,22.90
2023-03-29T02:47:56.740Z,22.90
2023-03-29T02:50:25.638Z,22.90
2023-03-29T02:52:59.269Z,22.92
2023-03-29T02:55:34.631Z,22.91
2023-03-29T02:58:08.297Z,22.90
2023-03-29T03:00:38.350Z,22.91
2023-03-29T03:03:08.004Z,22.92
2023-03-29T03:05:36.079Z,22.91
2023-03-29T03:08:04.586Z,22.92
2023-03-29T03:10:33.265Z,22.91
2023-03-29T03:13:00.430Z,22.89
2023-03-29T03:15:31.117Z,22.90
2023-03-29T03:17:58.177Z,22.92
2023-03-29T03:20:26.621Z,22.91
2023-03-29T03:22:54.901Z,22.88
2023-03-29T03:25:21.799Z,22.87
2023-03-29T03:27:50.683Z,22.84
2023-03-29T03:30:21.049Z,22.84
2023-03-29T03:33:27.485Z,22.84
2023-03-29T03:36:29.154Z,22.84
2023-03-29T03:38:57.087Z,22.86
2023-03-29T03:41:26.158Z,22.86
2023-03-29T03:43:53.966Z,22.86
2023-03-29T03:46:21.678Z,22.86
2023-03-29T03:48:49.250Z,22.87
2023-03-29T03:51:21.472Z,22.86
2023-03-29T03:53:50.944Z,22.87
2023-03-29T03:56:35.766Z,22.81
2023-03-29T03:59:23.860Z,22.82
2023-03-29T04:02:00.497Z,22.83
2023-03-29T04:04:28.036Z,22.83
2023-03-29T04:07:13.080Z,22.83
2023-03-29T04:10:00.467Z,22.81
2023-03-29T04:12:40.098Z,22.77
2023-03-29T04:15:08.760Z,22.80
2023-03-29T04:17:36.920Z,22.80
2023-03-29T04:20:24.773Z,22.80
2023-03-29T04:22:52.028Z,22.81
2023-03-29T04:25:23.799Z,22.78
2023-03-29T04:28:16.526Z,22.78
2023-03-29T04:30:52.254Z,22.78
2023-03-29T04:33:29.402Z,22.79
2023-03-29T04:35:59.994Z,22.80
2023-03-29T04:38:26.984Z,22.78
2023-03-29T04:40:56.306Z,22.79
2023-03-29T04:43:40.371Z,22.79
2023-03-29T04:46:40.345Z,22.83
2023-03-29T04:49:26.262Z,22.89
2023-03-29T04:51:54.943Z,22.94
2023-03-29T04:54:26.387Z,23.01
2023-03-29T04:57:02.204Z,23.06
2023-03-29T04:59:37.353Z,23.11
2023-03-29T05:02:14.479Z,23.16
2023-03-29T05:04:46.834Z,23.24
2023-03-29T05:07:17.661Z,23.29
2023-03-29T05:09:45.116Z,23.36
2023-03-29T05:12:14.361Z,23.42
2023-03-29T05:15:01.424Z,23.48
2023-03-29T05:17:29.124Z,23.55
2023-03-29T05:20:07.172Z,23.61
2023-03-29T05:22:34.342Z,23.67
2023-03-29T05:25:01.130Z,23.72
2023-03-29T05:27:29.883Z,23.77
2023-03-29T05:30:09.016Z,23.83
2023-03-29T05:33:05.866Z,23.88
2023-03-29T05:35:36.017Z,23.93
2023-03-29T05:38:06.465Z,23.97
2023-03-29T05:40:35.782Z,23.98
2023-03-29T05:43:20.970Z,24.01
2023-03-29T05:45:48.747Z,24.04
2023-03-29T05:48:15.695Z,24.07
2023-03-29T05:50:46.930Z,24.07
2023-03-29T05:53:13.809Z,24.08
2023-03-29T05:55:42.441Z,24.08
2023-03-29T05:58:12.986Z,24.09
2023-03-29T06:00:42.913Z,24.09
2023-03-29T06:03:33.679Z,24.07
2023-03-29T06:06:03.869Z,24.05
2023-03-29T06:08:32.881Z,24.05
2023-03-29T06:11:16.707Z,24.03
2023-03-29T06:14:02.455Z,23.98
2023-03-29T06:16:31.120Z,23.99
2023-03-29T06:18:58.238Z,23.98
2023-03-29T06:21:27.232Z,24.00
2023-03-29T06:23:54.674Z,24.01
2023-03-29T06:26:22.382Z,24.02
2023-03-29T06:28:52.059Z,24.03
2023-03-29T06:31:21.106Z,24.00
2023-03-29T06:33:52.201Z,24.03
2023-03-29T06:36:35.020Z,24.06
2023-03-29T06:39:08.498Z,24.11
2023-03-29T06:42:20.194Z,24.14
2023-03-29T06:45:07.699Z,24.18
2023-03-29T06:47:36.558Z,24.21
2023-03-29T06:50:05.896Z,24.26
2023-03-29T06:53:02.923Z,24.31
2023-03-29T06:55:31.622Z,24.37
2023-03-29T06:58:05.624Z,24.45
2023-03-29T07:00:35.778Z,24.53
2023-03-29T07:03:13.593Z,24.60
2023-03-29T07:05:42.567Z,24.66
2023-03-29T07:08:15.377Z,24.71
2023-03-29T07:10:54.206Z,24.75
2023-03-29T07:13:21.103Z,24.80
2023-03-29T07:15:49.630Z,24.85
2023-03-29T07:18:22.119Z,24.90
2023-03-29T07:20:52.058Z,24.95
2023-03-29T07:23:19.457Z,24.99
2023-03-29T07:25:47.650Z,25.01
2023-03-29T07:28:14.676Z,25.04
2023-03-29T07:30:41.474Z,25.06
2023-03-29T07:33:12.638Z,25.09
2023-03-29T07:35:52.807Z,25.09
2023-03-29T07:38:20.546Z,25.08
2023-03-29T07:40:54.517Z,25.06
2023-03-29T07:43:44.883Z,25.06
2023-03-29T07:46:14.246Z,25.07
2023-03-29T07:48:41.393Z,25.10
2023-03-29T07:51:11.974Z,25.12
2023-03-29T07:53:50.018Z,25.14
2023-03-29T07:56:36.065Z,25.16
2023-03-29T07:59:11.914Z,25.14
2023-03-29T08:01:41.201Z,25.14
2023-03-29T08:04:31.261Z,25.15
2023-03-29T08:07:21.345Z,25.15
2023-03-29T08:09:54.222Z,25.15
2023-03-29T08:12:29.657Z,25.16
2023-03-29T08:14:58.030Z,25.17
2023-03-29T08:17:29.572Z,25.18
2023-03-29T08:19:58.058Z,25.20
2023-03-29T08:22:26.504Z,25.21
2023-03-29T08:25:07.017Z,25.20
2023-03-29T08:27:39.090Z,25.21
2023-03-29T08:30:09.557Z,25.22
2023-03-29T08:32:39.228Z,25.22
2023-03-29T08:35:09.728Z,25.21
2023-03-29T08:37:45.957Z,25.23
2023-03-29T08:40:21.523Z,25.23
2023-03-29T08:43:34.852Z,25.23
2023-03-29T08:46:35.908Z,25.24
2023-03-29T08:49:21.147Z,25.22
2023-03-29T08:51:53.136Z,25.22
2023-03-29T08:54:26.871Z,25.22
2023-03-29T08:57:22.063Z,25.20
2023-03-29T08:59:58.476Z,25.21
2023-03-29T09:02:27.817Z,25.22
2023-03-29T09:05:08.726Z,25.23
2023-03-29T09:07:44.503Z,25.21
2023-03-29T09:10:16.795Z,25.21
2023-03-29T09:12:58.669Z,25.22
2023-03-29T09:15:31.036Z,25.25
2023-03-29T09:18:32.941Z,25.23
2023-03-29T09:21:04.439Z,25.21
2023-03-29T09:23:49.137Z,25.24
2023-03-29T09:26:40.196Z,25.22
2023-03-29T09:29:37.476Z,25.21
2023-03-29T09:32:16.960Z,25.20
2023-03-29T09:34:47.743Z,25.17
2023-03-29T09:37:25.449Z,25.16
2023-03-29T09:39:53.323Z,25.15
2023-03-29T09:42:29.237Z,25.17
2023-03-29T09:45:08.388Z,25.17
2023-03-29T09:47:47.803Z,25.18
2023-03-29T09:50:30.056Z,25.13
2023-03-29T09:52:59.420Z,25.10
2023-03-29T09:55:31.305Z,25.09
2023-03-29T09:58:14.897Z,25.11
2023-03-29T10:00:46.188Z,25.13
2023-03-29T10:03:19.140Z,25.14
2023-03-29T10:05:54.575Z,25.15
2023-03-29T10:08:27.302Z,25.14
2023-03-29T10:10:58.405Z,25.14
2023-03-29T10:13:30.626Z,25.13
2023-03-29T10:16:02.334Z,25.15
2023-03-29T10:18:30.982Z,25.15
2023-03-29T10:21:03.725Z,25.15
2023-03-29T10:23:32.546Z,25.12
2023-03-29T10:26:00.609Z,25.12
2023-03-29T10:28:30.983Z,25.11
2023-03-29T10:30:59.892Z,25.11
2023-03-29T10:33:31.292Z,25.10
2023-03-29T10:35:58.386Z,25.08
2023-03-29T10:38:29.458Z,25.05
2023-03-29T10:41:04.821Z,25.03
2023-03-29T10:43:38.553Z,25.03
2023-03-29T10:46:08.899Z,24.99
2023-03-29T10:48:36.210Z,24.99
2023-03-29T10:51:06.024Z,25.01
2023-03-29T10:53:35.198Z,25.01
2023-03-29T10:56:23.016Z,25.02
2023-03-29T10:59:08.667Z,25.02
2023-03-29T11:01:44.852Z,25.02
2023-03-29T11:04:34.726Z,25.02
2023-03-29T11:07:22.760Z,25.01
2023-03-29T11:09:59.390Z,25.00
2023-03-29T11:12:34.393Z,24.98
2023-03-29T11:15:15.033Z,24.98
2023-03-29T11:17:55.498Z,24.97
2023-03-29T11:20:32.904Z,24.98
2023-03-29T11:23:09.857Z,24.97
2023-03-29T11:25:46.375Z,24.97
2023-03-29T11:28:21.327Z,24.95
2023-03-29T11:30:57.492Z,24.94
2023-03-29T11:33:37.532Z,24.94
2023-03-29T11:36:12.707Z,24.95
2023-03-29T11:38:48.214Z,24.96
2023-03-29T11:41:18.643Z,24.97
2023-03-29T11:43:49.899Z,24.98
2023-03-29T11:46:21.754Z,25.00
2023-03-29T11:48:53.908Z,24.98
2023-03-29T11:51:25.865Z,24.96
2023-03-29T11:54:01.793Z,24.96
2023-03-29T11:56:35.023Z,24.96
2023-03-29T11:59:07.538Z,24.96
2023-03-29T12:01:41.324Z,24.97
2023-03-29T12:04:14.955Z,24.95
2023-03-29T12:06:50.682Z,24.96
2023-03-29T12:09:27.586Z,24.95
2023-03-29T12:12:01.906Z,24.96
2023-03-29T12:14:38.251Z,24.96
2023-03-29T12:17:12.615Z,24.97
2023-03-29T12:19:44.572Z,24.99
2023-03-29T12:22:11.462Z,24.99
2023-03-29T12:24:44.115Z,24.98
2023-03-29T12:27:22.255Z,24.96
2023-03-29T12:30:08.676Z,24.99
2023-03-29T12:32:48.792Z,24.99
2023-03-29T12:35:59.009Z,25.00
2023-03-29T12:38:48.154Z,25.00
2023-03-29T12:41:37.546Z,25.01
2023-03-29T12:44:36.813Z,25.01
2023-03-29T12:47:20.418Z,25.01
2023-03-29T12:49:55.667Z,25.03
2023-03-29T12:52:27.341Z,25.06
2023-03-29T12:54:57.360Z,25.07
2023-03-29T12:57:28.162Z,25.08
2023-03-29T12:59:56.402Z,25.08
2023-03-29T13:02:35.272Z,25.08
2023-03-29T13:05:05.613Z,25.09
2023-03-29T13:07:47.169Z,25.11
2023-03-29T13:10:31.380Z,25.11
2023-03-29T13:13:11.232Z,25.08
2023-03-29T13:15:39.305Z,25.07
2023-03-29T13:18:20.431Z,25.09
2023-03-29T13:20:59.111Z,25.09
2023-03-29T13:23:36.438Z,25.09
2023-03-29T13:26:34.030Z,25.12
2023-03-29T13:29:17.514Z,25.11
2023-03-29T13:31:50.397Z,25.13
2023-03-29T13:34:31.322Z,25.15
2023-03-29T13:37:08.904Z,25.16
2023-03-29T13:39:36.984Z,25.17
2023-03-29T13:42:21.669Z,25.16
2023-03-29T13:44:51.491Z,25.15
2023-03-29T13:47:58.691Z,25.16
2023-03-29T13:50:37.122Z,25.18
2023-03-29T13:53:13.834Z,25.19
2023-03-29T13:55:48.126Z,25.19
2023-03-29T13:58:27.361Z,25.18
2023-03-29T14:01:00.554Z,25.18
2023-03-29T14:03:30.141Z,25.18
2023-03-29T14:06:00.508Z,25.19
2023-03-29T14:08:32.015Z,25.21
2023-03-29T14:11:02.251Z,25.20
2023-03-29T14:13:29.937Z,25.19
2023-03-29T14:16:02.975Z,25.20
2023-03-29T14:18:33.996Z,25.20
2023-03-29T14:21:01.879Z,25.22
2023-03-29T14:23:33.219Z,25.22
2023-03-29T14:26:05.872Z,25.21
2023-03-29T14:28:33.170Z,25.20
2023-03-29T14:30:59.960Z,25.22
2023-03-29T14:33:28.817Z,25.22
2023-03-29T14:35:57.197Z,25.22
2023-03-29T14:38:27.067Z,25.23
2023-03-29T14:41:00.154Z,25.24
2023-03-29T14:43:30.512Z,25.24
2023-03-29T14:45:57.703Z,25.24
2023-03-29T14:48:25.033Z,25.25
2023-03-29T14:50:52.483Z,25.25
2023-03-29T14:53:21.541Z,25.27
2023-03-29T14:55:51.734Z,25.28
2023-03-29T14:58:23.712Z,25.29
2023-03-29T15:00:51.869Z,25.30
2023-03-29T15:03:22.780Z,25.28
2023-03-29T15:05:54.031Z,25.28
2023-03-29T15:08:30.916Z,25.30
2023-03-29T15:10:58.270Z,25.30
2023-03-29T15:13:27.524Z,25.30
2023-03-29T15:15:59.146Z,25.29
2023-03-29T15:18:31.551Z,25.29
2023-03-29T15:20:59.090Z,25.27
2023-03-29T15:23:26.663Z,25.29
2023-03-29T15:25:57.054Z,25.27
2023-03-29T15:28:29.191Z,25.26
2023-03-29T15:31:07.885Z,25.28
2023-03-29T15:33:37.636Z,25.29
2023-03-29T15:36:06.818Z,25.27
2023-03-29T15:38:43.282Z,25.29
2023-03-29T15:41:13.572Z,25.28
2023-03-29T15:43:42.373Z,25.28
2023-03-29T15:46:11.476Z,25.28
2023-03-29T15:48:38.545Z,25.27
2023-03-29T15:51:06.897Z,25.26
2023-03-29T15:53:35.093Z,25.25
2023-03-29T15:56:05.436Z,25.24
2023-03-29T15:58:34.666Z,25.23
2023-03-29T16:01:13.261Z,25.23
2023-03-29T16:03:40.660Z,25.22
2023-03-29T16:06:10.717Z,25.20
2023-03-29T16:08:37.692Z,25.18
2023-03-29T16:11:06.786Z,25.18
2023-03-29T16:13:33.811Z,25.15
2023-03-29T16:16:00.841Z,25.15
2023-03-29T16:18:49.518Z,25.13
2023-03-29T16:21:18.761Z,25.14
2023-03-29T16:23:46.481Z,25.11
2023-03-29T16:26:14.819Z,25.11
2023-03-29T16:28:42.145Z,25.11
2023-03-29T16:31:10.975Z,25.11
2023-03-29T16:33:38.109Z,25.09
2023-03-29T16:36:08.042Z,25.11
2023-03-29T16:38:35.095Z,25.11
2023-03-29T16:41:02.661Z,25.11
2023-03-29T16:43:29.621Z,25.11
2023-03-29T16:45:57.046Z,25.09
2023-03-29T16:48:24.024Z,25.08
2023-03-29T16:50:51.340Z,25.06
2023-03-29T16:53:19.942Z,25.05
2023-03-29T16:55:47.254Z,25.05
2023-03-29T16:58:15.586Z,25.05
2023-03-29T17:00:44.429Z,25.05
2023-03-29T17:03:13.579Z,25.01
2023-03-29T17:05:42.540Z,25.00
2023-03-29T17:08:10.242Z,24.99
2023-03-29T17:10:39.608Z,24.99
2023-03-29T17:13:06.879Z,24.98
2023-03-29T17:15:34.820Z,24.98
2023-03-29T17:18:02.944Z,24.95
2023-03-29T17:20:30.057Z,24.94
2023-03-29T17:22:56.792Z,24.93
2023-03-29T17:25:24.967Z,24.92
2023-03-29T17:27:54.084Z,24.92
2023-03-29T17:30:21.197Z,24.91
2023-03-29T17:32:48.424Z,24.91
2023-03-29T17:35:16.034Z,24.89
2023-03-29T17:37:43.046Z,24.87
2023-03-29T17:40:14.343Z,24.87
2023-03-29T17:42:42.171Z,24.87
2023-03-29T17:45:11.519Z,24.84
2023-03-29T17:47:39.048Z,24.85
2023-03-29T17:50:07.641Z,24.83
2023-03-29T17:52:35.982Z,24.80
2023-03-29T17:55:03.234Z,24.82
2023-03-29T17:57:30.494Z,24.82
2023-03-29T17:59:57.278Z,24.80
2023-03-29T18:02:25.778Z,24.78
2023-03-29T18:04:52.868Z,24.79
2023-03-29T18:07:19.820Z,24.82
2023-03-29T18:09:46.759Z,24.85
2023-03-29T18:12:13.824Z,24.89
2023-03-29T18:14:40.765Z,24.90
2023-03-29T18:17:07.612Z,24.90
2023-03-29T18:19:36.358Z,24.91
2023-03-29T18:22:04.133Z,24.94
2023-03-29T18:24:31.272Z,24.95
2023-03-29T18:26:58.073Z,24.93
2023-03-29T18:32:12.232Z,24.90
2023-03-29T18:34:40.460Z,24.89
2023-03-29T18:37:27.429Z,24.88
2023-03-29T18:39:54.767Z,24.87
2023-03-29T18:42:21.931Z,24.88
2023-03-29T18:44:49.324Z,24.88
2023-03-29T18:47:18.229Z,24.90
2023-03-29T18:49:47.304Z,24.90
2023-03-29T18:52:34.412Z,24.91
2023-03-29T18:55:01.467Z,24.92
2023-03-29T18:57:28.339Z,24.94
2023-03-29T18:59:55.483Z,24.94
2023-03-29T19:02:22.331Z,24.95
2023-03-29T19:04:50.877Z,24.97
2023-03-29T19:07:17.974Z,24.97
2023-03-29T19:09:46.016Z,24.97
2023-03-29T19:12:12.822Z,24.97
2023-03-29T19:14:39.947Z,25.00
2023-03-29T19:17:06.755Z,24.99
2023-03-29T19:19:33.705Z,24.99
2023-03-29T19:22:02.205Z,24.98
2023-03-29T19:24:29.171Z,24.97
2023-03-29T19:26:56.683Z,24.96
2023-03-29T19:29:23.514Z,24.94
2023-03-29T19:31:51.930Z,24.94
2023-03-29T19:34:21.281Z,24.91
2023-03-29T19:36:48.383Z,24.89
2023-03-29T19:39:16.811Z,24.86
2023-03-29T19:41:43.897Z,24.86
2023-03-29T19:44:11.042Z,24.85
2023-03-29T19:46:39.003Z,24.82
2023-03-29T19:49:06.214Z,24.81
2023-03-29T19:51:32.971Z,24.78
2023-03-29T19:54:01.604Z,24.74
2023-03-29T19:56:30.503Z,24.72
2023-03-29T19:58:57.285Z,24.71
2023-03-29T20:01:27.103Z,24.71
2023-03-29T20:03:55.430Z,24.71
2023-03-29T20:06:22.296Z,24.70
2023-03-29T20:08:51.456Z,24.68
2023-03-29T20:11:23.657Z,24.69
2023-03-29T20:13:52.261Z,24.69
2023-03-29T20:16:19.620Z,24.69
2023-03-29T20:18:46.722Z,24.70
2023-03-29T20:21:17.482Z,24.70
2023-03-29T20:23:44.634Z,24.68
2023-03-29T20:26:11.667Z,24.66
2023-03-29T20:28:38.881Z,24.65
2023-03-29T20:31:11.016Z,24.65
2023-03-29T20:36:26.841Z,24.63
2023-03-29T20:38:56.205Z,24.61
2023-03-29T20:41:23.225Z,24.59
2023-03-29T20:43:58.358Z,24.58
2023-03-29T20:46:33.763Z,24.58
2023-03-29T20:49:01.286Z,24.56
2023-03-29T20:51:30.365Z,24.54
2023-03-29T20:54:04.772Z,24.55
2023-03-29T20:56:33.891Z,24.53
2023-03-29T20:59:01.072Z,24.54
2023-03-29T21:01:30.206Z,24.53
2023-03-29T21:03:57.179Z,24.52
2023-03-29T21:06:24.392Z,24.50
2023-03-29T21:08:52.561Z,24.50
2023-03-29T21:11:20.253Z,24.49
2023-03-29T21:13:47.408Z,24.47
2023-03-29T21:16:14.480Z,24.46
2023-03-29T21:18:43.394Z,24.46
2023-03-29T21:21:11.609Z,24.45
2023-03-29T21:23:39.482Z,24.44
2023-03-29T21:26:07.826Z,24.41
2023-03-29T21:28:34.972Z,24.40
2023-03-29T21:31:04.675Z,24.38
2023-03-29T21:33:31.992Z,24.38
2023-03-29T21:36:00.874Z,24.38
2023-03-29T21:38:28.659Z,24.36
2023-03-29T21:40:55.503Z,24.33
2023-03-29T21:43:22.471Z,24.33
2023-03-29T21:45:50.320Z,24.30
2023-03-29T21:48:17.663Z,24.27
2023-03-29T21:50:47.993Z,24.24
2023-03-29T21:53:16.246Z,24.24
2023-03-29T21:55:43.036Z,24.24
2023-03-29T21:58:09.922Z,24.23
2023-03-29T22:00:36.839Z,24.25
2023-03-29T22:03:04.100Z,24.21
2023-03-29T22:05:31.210Z,24.22
2023-03-29T22:07:58.708Z,24.21
2023-03-29T22:10:27.357Z,24.23
2023-03-29T22:12:54.271Z,24.21
2023-03-29T22:15:21.050Z,24.22
2023-03-29T22:17:48.526Z,24.21
2023-03-29T22:20:15.764Z,24.21
2023-03-29T22:22:45.236Z,24.20
2023-03-29T22:25:12.718Z,24.22
2023-03-29T22:27:42.518Z,24.23
2023-03-29T22:30:10.930Z,24.22
2023-03-29T22:32:37.820Z,24.20
2023-03-29T22:35:06.394Z,24.19
2023-03-29T22:37:33.363Z,24.15
2023-03-29T22:40:00.220Z,24.17
2023-03-29T22:42:27.022Z,24.17
2023-03-29T22:44:55.425Z,24.17
2023-03-29T22:47:22.313Z,24.16
2023-03-29T22:49:49.176Z,24.14
2023-03-29T22:52:16.169Z,24.11
2023-03-29T22:54:42.982Z,24.12
2023-03-29T22:57:09.828Z,24.13
2023-03-29T22:59:36.738Z,24.11
2023-03-29T23:02:05.141Z,24.12
2023-03-29T23:04:32.269Z,24.13
2023-03-29T23:07:00.245Z,24.14
2023-03-29T23:09:27.013Z,24.12
2023-03-29T23:11:53.878Z,24.11
2023-03-29T23:14:20.661Z,24.09
2023-03-29T23:16:47.489Z,24.10
2023-03-29T23:19:15.861Z,24.08
2023-03-29T23:21:42.644Z,24.08
2023-03-29T23:24:09.445Z,24.10
2023-03-29T23:26:37.604Z,24.08
2023-03-29T23:29:04.495Z,24.07
2023-03-29T23:31:33.758Z,24.05
2023-03-29T23:34:00.740Z,24.06
2023-03-29T23:36:31.485Z,24.06
2023-03-29T23:38:59.618Z,24.05
2023-03-29T23:41:30.623Z,24.03
2023-03-29T23:43:57.861Z,24.02
2023-03-29T23:46:27.502Z,23.99
2023-03-29T23:48:54.615Z,24.04
2023-03-29T23:51:28.976Z,24.04
2023-03-29T23:53:57.482Z,24.02
2023-03-29T23:56:24.483Z,24.02
2023-03-29T23:58:51.785Z,24.02
